KRKS

Rock Springs-Sweetwater County Airport

Rock Springs, Wyoming, USA
METAR KRKS 141154Z AUTO 22006KT 10SM CLR M09/M16 A3037 RMK AO2 SLP349 T10941161 11078 21111 58001
Observed Flight Rules
Dec-14 @ 11:54 UTC (45 minutes ago) Visual Flight Rules
Wind Visibility Clouds
220° at 6 knots 10 miles
  • Clear skies
Temperatures Readings
Current -9°C / 16°F
Dewpoint -16°C / 3°F
Humidity 57%
Altimeter 30.37" Hg
Pressure 1034.9 hPa
Elevation 2060
METAR KRKS 141154Z AUTO 22006KT 10SM CLR M09/M16 A3037 RMK AO2 SLP349 T10941161 11078 21111 58001
Observed Flight Rules
Dec-14 @ 11:54 UTC
(45 minutes ago)
VFR
Wind Visibility
220° at 6 knots 10 miles
Clouds
  • Clear skies
Temperature Dewpoint
-9°C / 16°F -16°C / 3°F
Humidity Altimeter Pressure
57% 30.37" Hg 1034.9 hPa